Time,TemperatureF,DewpointF,PressureIn,WindDirection,WindDirectionDegrees,WindSpeedMPH,WindSpeedGustMPH,Humidity,HourlyPrecipIn,Conditions,Clouds,dailyrainin,SoftwareType,DateUTC
2013-10-03 00:00:00,57.6,45.1,29.89,SSE,149,0.0,1.0,63,0.00,,,0.00,Wunderground v.1.13,2013-10-03 05:00:00,
2013-10-03 00:05:00,57.6,44.2,29.89,ESE,119,0.0,5.0,61,0.00,,,0.00,Wunderground v.1.13,2013-10-03 05:05:00,
2013-10-03 00:15:00,57.6,43.4,29.88,ESE,120,0.0,5.0,59,0.00,,,0.00,Wunderground v.1.13,2013-10-03 05:15:00,
2013-10-03 00:20:00,57.6,42.9,29.88,SE,124,0.0,5.0,58,0.00,,,0.00,Wunderground v.1.13,2013-10-03 05:20:00,
2013-10-03 00:25:00,58.0,42.8,29.88,ESE,123,0.0,5.0,57,0.00,,,0.00,Wunderground v.1.13,2013-10-03 05:25:00,
2013-10-03 00:35:00,58.0,41.9,29.88,ESE,115,0.0,6.0,55,0.00,,,0.00,Wunderground v.1.13,2013-10-03 05:35:00,
2013-10-03 00:40:00,58.1,41.5,29.88,ESE,115,0.0,6.0,54,0.00,,,0.00,Wunderground v.1.13,2013-10-03 05:40:00,
2013-10-03 00:50:00,58.3,41.7,29.88,ESE,115,0.0,6.0,54,0.00,,,0.00,Wunderground v.1.13,2013-10-03 05:50:00,
2013-10-03 00:55:00,58.1,41.5,29.88,ESE,115,0.0,6.0,54,0.00,,,0.00,Wunderground v.1.13,2013-10-03 05:55:00,
2013-10-03 01:05:00,57.8,42.2,29.88,ESE,115,0.0,4.0,56,0.00,,,0.00,Wunderground v.1.13,2013-10-03 06:05:00,
2013-10-03 01:15:00,57.2,42.1,29.87,ESE,115,0.0,4.0,57,0.00,,,0.00,Wunderground v.1.13,2013-10-03 06:15:00,
2013-10-03 01:25:00,56.6,42.9,29.87,ESE,115,0.0,4.0,60,0.00,,,0.00,Wunderground v.1.13,2013-10-03 06:25:00,
2013-10-03 01:30:00,56.6,43.3,29.87,ESE,115,0.0,4.0,61,0.00,,,0.00,Wunderground v.1.13,2013-10-03 06:30:00,
2013-10-03 01:40:00,57.0,43.7,29.87,ESE,115,0.0,0.0,61,0.00,,,0.00,Wunderground v.1.13,2013-10-03 06:40:00,
2013-10-03 01:50:00,57.3,44.4,29.87,ESE,115,0.0,0.0,62,0.00,,,0.00,Wunderground v.1.13,2013-10-03 06:50:00,
2013-10-03 02:00:00,58.0,45.5,29.87,ESE,115,0.0,0.0,63,0.00,,,0.00,Wunderground v.1.13,2013-10-03 07:00:00,
2013-10-03 02:05:00,58.4,45.4,29.87,ESE,115,0.0,0.0,62,0.00,,,0.00,Wunderground v.1.13,2013-10-03 07:05:00,
2013-10-03 02:15:00,59.0,46.8,29.86,ESE,115,0.0,0.0,64,0.00,,,0.00,Wunderground v.1.13,2013-10-03 07:15:00,
2013-10-03 02:20:00,59.2,47.4,29.86,SE,127,0.0,0.0,65,0.00,,,0.00,Wunderground v.1.13,2013-10-03 07:20:00,
2013-10-03 02:25:00,59.3,47.9,29.86,SSE,163,0.0,0.0,66,0.00,,,0.00,Wunderground v.1.13,2013-10-03 07:25:00,
2013-10-03 02:35:00,59.5,48.9,29.86,ESE,117,0.0,2.0,68,0.00,,,0.00,Wunderground v.1.13,2013-10-03 07:35:00,
2013-10-03 02:40:00,59.5,49.3,29.86,ESE,118,0.0,2.0,69,0.00,,,0.00,Wunderground v.1.13,2013-10-03 07:40:00,
2013-10-03 02:45:00,59.3,49.5,29.85,ESE,118,0.0,2.0,70,0.00,,,0.00,Wunderground v.1.13,2013-10-03 07:45:00,
2013-10-03 02:50:00,59.3,49.9,29.85,ESE,118,0.0,2.0,71,0.00,,,0.00,Wunderground v.1.13,2013-10-03 07:50:00,
2013-10-03 03:00:00,59.3,51.0,29.84,ESE,115,0.0,2.0,74,0.00,,,0.00,Wunderground v.1.13,2013-10-03 08:00:00,
2013-10-03 03:05:00,59.3,51.4,29.84,ESE,115,0.0,4.0,75,0.00,,,0.00,Wunderground v.1.13,2013-10-03 08:05:00,
2013-10-03 03:15:00,59.3,52.4,29.84,ESE,114,0.0,4.0,78,0.00,,,0.00,Wunderground v.1.13,2013-10-03 08:15:00,
2013-10-03 03:20:00,59.2,52.7,29.84,ESE,115,0.0,4.0,79,0.00,,,0.00,Wunderground v.1.13,2013-10-03 08:20:00,
2013-10-03 03:30:00,59.2,53.0,29.84,ESE,115,0.0,4.0,80,0.00,,,0.00,Wunderground v.1.13,2013-10-03 08:30:00,
2013-10-03 03:35:00,59.3,53.5,29.84,ESE,115,0.0,2.0,81,0.00,,,0.00,Wunderground v.1.13,2013-10-03 08:35:00,
2013-10-03 03:40:00,59.5,54.0,29.84,ESE,115,0.0,2.0,82,0.00,,,0.00,Wunderground v.1.13,2013-10-03 08:40:00,
2013-10-03 03:50:00,59.9,54.4,29.84,ESE,115,0.0,2.0,82,0.00,,,0.00,Wunderground v.1.13,2013-10-03 08:50:00,
2013-10-03 03:55:00,60.1,54.9,29.84,ESE,115,0.0,2.0,83,0.00,,,0.00,Wunderground v.1.13,2013-10-03 08:55:00,
2013-10-03 04:05:00,60.5,55.3,29.84,ESE,121,0.0,2.0,83,0.00,,,0.00,Wunderground v.1.13,2013-10-03 09:05:00,
2013-10-03 04:15:00,61.2,56.3,29.82,ESE,123,0.0,1.0,84,0.00,,,0.00,Wunderground v.1.13,2013-10-03 09:15:00,
2013-10-03 04:25:00,61.5,56.9,29.82,ESE,114,0.0,1.0,85,0.00,,,0.00,Wunderground v.1.13,2013-10-03 09:25:00,
2013-10-03 04:30:00,61.6,57.4,29.82,ESE,117,0.0,1.0,86,0.00,,,0.00,Wunderground v.1.13,2013-10-03 09:30:00,
2013-10-03 04:35:00,61.6,57.4,29.82,SE,133,0.0,2.0,86,0.00,,,0.00,Wunderground v.1.13,2013-10-03 09:35:00,
2013-10-03 04:45:00,61.8,57.6,29.82,East,91,0.0,2.0,86,0.00,,,0.00,Wunderground v.1.13,2013-10-03 09:45:00,
2013-10-03 04:50:00,61.8,57.9,29.82,SE,146,0.0,2.0,87,0.00,,,0.00,Wunderground v.1.13,2013-10-03 09:50:00,
2013-10-03 04:55:00,61.8,57.9,29.82,SE,144,0.0,2.0,87,0.00,,,0.00,Wunderground v.1.13,2013-10-03 09:55:00,
2013-10-03 05:05:00,61.8,57.9,29.81,ESE,118,0.0,5.0,87,0.00,,,0.00,Wunderground v.1.13,2013-10-03 10:05:00,
2013-10-03 05:15:00,62.0,58.4,29.82,ESE,118,0.0,5.0,88,0.00,,,0.00,Wunderground v.1.13,2013-10-03 10:15:00,
2013-10-03 05:20:00,62.1,58.8,29.82,ESE,118,0.0,5.0,89,0.00,,,0.00,Wunderground v.1.13,2013-10-03 10:20:00,
2013-10-03 05:25:00,62.1,58.8,29.82,ESE,118,0.0,5.0,89,0.00,,,0.00,Wunderground v.1.13,2013-10-03 10:25:00,
2013-10-03 05:35:00,62.3,59.3,29.82,ESE,119,0.0,6.0,90,0.00,,,0.00,Wunderground v.1.13,2013-10-03 10:35:00,
2013-10-03 05:45:00,62.4,59.7,29.82,SSE,153,0.0,6.0,91,0.00,,,0.00,Wunderground v.1.13,2013-10-03 10:45:00,
2013-10-03 05:50:00,62.4,60.0,29.82,SE,143,0.0,6.0,92,0.00,,,0.00,Wunderground v.1.13,2013-10-03 10:50:00,
2013-10-03 05:55:00,62.4,60.0,29.82,SE,143,0.0,6.0,92,0.00,,,0.00,Wunderground v.1.13,2013-10-03 10:55:00,
2013-10-03 06:05:00,62.6,60.2,29.83,SE,143,0.0,6.0,92,0.00,,,0.00,Wunderground v.1.13,2013-10-03 11:05:00,
2013-10-03 06:10:00,62.6,60.5,29.83,SE,143,0.0,6.0,93,0.00,,,0.00,Wunderground v.1.13,2013-10-03 11:10:00,
2013-10-03 06:20:00,62.6,60.5,29.82,SE,144,0.0,6.0,93,0.00,,,0.00,Wunderground v.1.13,2013-10-03 11:20:00,
2013-10-03 06:25:00,62.4,60.3,29.82,SE,144,0.0,6.0,93,0.00,,,0.00,Wunderground v.1.13,2013-10-03 11:25:00,
2013-10-03 06:35:00,62.4,60.7,29.85,NW,307,1.0,5.0,94,0.00,,,0.00,Wunderground v.1.13,2013-10-03 11:35:00,
2013-10-03 06:45:00,62.4,60.7,29.85,WNW,289,1.0,6.0,94,0.00,,,0.00,Wunderground v.1.13,2013-10-03 11:45:00,
2013-10-03 06:50:00,62.1,60.4,29.85,West,281,2.0,5.0,94,0.00,,,0.00,Wunderground v.1.13,2013-10-03 11:50:00,
2013-10-03 07:00:00,60.4,58.7,29.86,West,272,5.0,5.0,94,0.00,,,0.00,Wunderground v.1.13,2013-10-03 12:00:00,
2013-10-03 07:10:00,59.6,57.9,29.86,West,278,2.0,2.0,94,0.00,,,0.00,Wunderground v.1.13,2013-10-03 12:10:00,
2013-10-03 07:15:00,59.6,57.9,29.86,West,278,0.0,8.0,94,0.00,,,0.00,Wunderground v.1.13,2013-10-03 12:15:00,
2013-10-03 07:20:00,59.6,57.9,29.86,West,278,0.0,8.0,94,0.00,,,0.00,Wunderground v.1.13,2013-10-03 12:20:00,
2013-10-03 07:30:00,59.8,58.1,29.85,West,262,0.0,8.0,94,0.00,,,0.00,Wunderground v.1.13,2013-10-03 12:30:00,
2013-10-03 07:40:00,59.9,58.5,29.85,SSE,167,0.0,15.0,95,0.00,,,0.00,Wunderground v.1.13,2013-10-03 12:40:00,
2013-10-03 07:45:00,59.9,58.5,29.84,SSE,167,0.0,15.0,95,0.00,,,0.00,Wunderground v.1.13,2013-10-03 12:45:00,
2013-10-03 07:50:00,60.1,58.7,29.84,SSE,153,0.0,15.0,95,0.00,,,0.00,Wunderground v.1.13,2013-10-03 12:50:00,
2013-10-03 08:00:00,60.4,59.0,29.84,SE,144,0.0,15.0,95,0.00,,,0.00,Wunderground v.1.13,2013-10-03 13:00:00,
2013-10-03 08:10:00,60.7,59.3,29.84,SE,144,0.0,0.0,95,0.00,,,0.00,Wunderground v.1.13,2013-10-03 13:10:00,
2013-10-03 08:15:00,60.9,59.5,29.83,SE,144,0.0,0.0,95,0.00,,,0.00,Wunderground v.1.13,2013-10-03 13:15:00,
2013-10-03 08:25:00,61.0,59.9,29.83,SE,144,0.0,0.0,96,0.00,,,0.00,Wunderground v.1.13,2013-10-03 13:25:00,
2013-10-03 08:30:00,61.2,60.1,29.83,SE,142,0.0,0.0,96,0.00,,,0.00,Wunderground v.1.13,2013-10-03 13:30:00,
2013-10-03 08:35:00,61.5,60.3,29.83,SE,142,0.0,6.0,96,0.00,,,0.00,Wunderground v.1.13,2013-10-03 13:35:00,
2013-10-03 08:40:00,61.6,60.4,29.83,SSE,147,0.0,6.0,96,0.00,,,0.00,Wunderground v.1.13,2013-10-03 13:40:00,
2013-10-03 08:50:00,62.0,60.8,29.83,ESE,113,0.0,6.0,96,0.00,,,0.00,Wunderground v.1.13,2013-10-03 13:50:00,
2013-10-03 09:00:00,62.7,61.5,29.83,SW,216,0.0,6.0,96,0.00,,,0.00,Wunderground v.1.13,2013-10-03 14:00:00,
2013-10-03 09:05:00,63.1,61.6,29.83,SE,141,1.0,1.0,95,0.00,,,0.00,Wunderground v.1.13,2013-10-03 14:05:00,
2013-10-03 09:15:00,63.9,62.4,29.82,South,171,2.0,2.0,95,0.00,,,0.00,Wunderground v.1.13,2013-10-03 14:15:00,
2013-10-03 09:20:00,64.3,62.5,29.82,SSE,164,1.0,5.0,94,0.00,,,0.00,Wunderground v.1.13,2013-10-03 14:20:00,
2013-10-03 09:25:00,64.8,62.7,29.82,South,171,1.0,6.0,93,0.00,,,0.00,Wunderground v.1.13,2013-10-03 14:25:00,
2013-10-03 09:35:00,65.6,63.2,29.81,SSE,165,2.0,8.0,92,0.00,,,0.00,Wunderground v.1.13,2013-10-03 14:35:00,
2013-10-03 09:40:00,66.1,63.1,29.81,South,175,3.0,8.0,90,0.00,,,0.00,Wunderground v.1.13,2013-10-03 14:40:00,
2013-10-03 09:45:00,66.8,63.8,29.81,ESE,120,3.0,3.0,90,0.00,,,0.00,Wunderground v.1.13,2013-10-03 14:45:00,
2013-10-03 09:55:00,67.9,63.9,29.81,SE,130,2.0,8.0,87,0.00,,,0.00,Wunderground v.1.13,2013-10-03 14:55:00,
2013-10-03 10:00:00,68.6,64.6,29.81,SSE,150,2.0,8.0,87,0.00,,,0.00,Wunderground v.1.13,2013-10-03 15:00:00,
2013-10-03 10:05:00,68.8,64.1,29.81,SSE,163,3.0,3.0,85,0.00,,,0.00,Wunderground v.1.13,2013-10-03 15:05:00,
2013-10-03 10:15:00,68.1,63.4,29.82,SSE,159,5.0,5.0,85,0.00,,,0.00,Wunderground v.1.13,2013-10-03 15:15:00,
2013-10-03 10:20:00,67.6,63.6,29.82,SE,142,5.0,9.0,87,0.00,,,0.00,Wunderground v.1.13,2013-10-03 15:20:00,
2013-10-03 10:30:00,67.6,63.9,29.81,East,96,4.0,4.0,88,0.00,,,0.00,Wunderground v.1.13,2013-10-03 15:30:00,
2013-10-03 10:35:00,67.9,64.2,29.81,SE,144,3.0,3.0,88,0.00,,,0.00,Wunderground v.1.13,2013-10-03 15:35:00,
2013-10-03 10:40:00,68.4,64.7,29.81,ESE,115,2.0,2.0,88,0.00,,,0.00,Wunderground v.1.13,2013-10-03 15:40:00,
2013-10-03 10:50:00,69.1,65.1,29.81,South,174,4.0,13.0,87,0.00,,,0.00,Wunderground v.1.13,2013-10-03 15:50:00,
2013-10-03 10:55:00,69.8,65.4,29.81,South,191,3.0,13.0,86,0.00,,,0.00,Wunderground v.1.13,2013-10-03 15:55:00,
2013-10-03 11:05:00,69.4,65.0,29.82,ESE,119,3.0,3.0,86,0.00,,,0.00,Wunderground v.1.13,2013-10-03 16:05:00,
2013-10-03 11:15:00,69.3,64.9,29.82,SSW,198,2.0,15.0,86,0.00,,,0.00,Wunderground v.1.13,2013-10-03 16:15:00,
2013-10-03 11:25:00,68.9,64.9,29.82,South,176,3.0,3.0,87,0.00,,,0.00,Wunderground v.1.13,2013-10-03 16:25:00,
2013-10-03 11:30:00,68.8,64.8,29.83,SSW,207,4.0,4.0,87,0.00,,,0.00,Wunderground v.1.13,2013-10-03 16:30:00,
2013-10-03 11:40:00,68.1,64.7,29.83,South,182,3.0,3.0,89,0.00,,,0.00,Wunderground v.1.13,2013-10-03 16:40:00,
2013-10-03 11:45:00,67.9,64.5,29.83,SE,131,2.0,10.0,89,0.00,,,0.00,Wunderground v.1.13,2013-10-03 16:45:00,
2013-10-03 11:50:00,67.9,64.9,29.83,SE,138,2.0,10.0,90,0.00,,,0.00,Wunderground v.1.13,2013-10-03 16:50:00,
2013-10-03 12:00:00,67.8,65.1,29.83,SE,127,3.0,10.0,91,0.00,,,0.00,Wunderground v.1.13,2013-10-03 17:00:00,
2013-10-03 12:05:00,67.8,65.1,29.83,South,178,2.0,2.0,91,0.00,,,0.00,Wunderground v.1.13,2013-10-03 17:05:00,
2013-10-03 12:15:00,67.8,65.1,29.83,SSE,147,1.0,1.0,91,0.00,,,0.00,Wunderground v.1.13,2013-10-03 17:15:00,
2013-10-03 12:20:00,67.9,65.5,29.83,SSW,209,1.0,1.0,92,0.00,,,0.00,Wunderground v.1.13,2013-10-03 17:20:00,
2013-10-03 12:25:00,67.9,65.2,29.83,South,184,1.0,1.0,91,0.00,,,0.00,Wunderground v.1.13,2013-10-03 17:25:00,
2013-10-03 12:35:00,68.1,65.4,29.80,South,178,0.0,13.0,91,0.00,,,0.00,Wunderground v.1.13,2013-10-03 17:35:00,
2013-10-03 12:40:00,68.1,65.4,29.80,SSW,195,1.0,13.0,91,0.00,,,0.00,Wunderground v.1.13,2013-10-03 17:40:00,
2013-10-03 12:45:00,68.1,65.4,29.80,South,186,1.0,1.0,91,0.00,,,0.00,Wunderground v.1.13,2013-10-03 17:45:00,
2013-10-03 12:50:00,68.3,65.6,29.80,South,186,0.0,13.0,91,0.00,,,0.00,Wunderground v.1.13,2013-10-03 17:50:00,
2013-10-03 13:00:00,68.3,65.3,29.78,South,170,0.0,13.0,90,0.00,,,0.00,Wunderground v.1.13,2013-10-03 18:00:00,
2013-10-03 13:05:00,68.3,65.3,29.78,SSE,157,0.0,7.0,90,0.00,,,0.00,Wunderground v.1.13,2013-10-03 18:05:00,
2013-10-03 13:15:00,68.8,65.7,29.77,SSE,153,0.0,7.0,90,0.00,,,0.00,Wunderground v.1.13,2013-10-03 18:15:00,
2013-10-03 13:20:00,68.9,65.5,29.77,SSE,155,0.0,7.0,89,0.00,,,0.00,Wunderground v.1.13,2013-10-03 18:20:00,
2013-10-03 13:30:00,69.3,65.3,29.77,SSW,198,0.0,7.0,87,0.00,,,0.00,Wunderground v.1.13,2013-10-03 18:30:00,
2013-10-03 13:40:00,69.6,65.2,29.77,SSE,153,0.0,6.0,86,0.00,,,0.00,Wunderground v.1.13,2013-10-03 18:40:00,
2013-10-03 13:50:00,70.1,65.0,29.76,SE,136,1.0,1.0,84,0.00,,,0.00,Wunderground v.1.13,2013-10-03 18:50:00,
2013-10-03 13:55:00,70.4,65.0,29.76,SE,135,1.0,1.0,83,0.00,,,0.00,Wunderground v.1.13,2013-10-03 18:55:00,
2013-10-03 14:00:00,70.9,65.1,29.75,SSE,167,0.0,6.0,82,0.00,,,0.00,Wunderground v.1.13,2013-10-03 19:00:00,
2013-10-03 14:05:00,70.9,64.8,29.75,SSE,158,1.0,7.0,81,0.00,,,0.00,Wunderground v.1.13,2013-10-03 19:05:00,
2013-10-03 14:15:00,70.9,64.4,29.76,SSE,156,2.0,2.0,80,0.00,,,0.00,Wunderground v.1.13,2013-10-03 19:15:00,
2013-10-03 14:25:00,71.3,65.2,29.76,SSE,154,0.0,7.0,81,0.00,,,0.00,Wunderground v.1.13,2013-10-03 19:25:00,
2013-10-03 14:30:00,71.8,65.7,29.75,ESE,103,1.0,1.0,81,0.00,,,0.00,Wunderground v.1.13,2013-10-03 19:30:00,
2013-10-03 14:35:00,72.0,65.5,29.75,SE,126,1.0,1.0,80,0.00,,,0.00,Wunderground v.1.13,2013-10-03 19:35:00,
2013-10-03 14:40:00,72.0,65.5,29.75,SSE,154,1.0,10.0,80,0.00,,,0.00,Wunderground v.1.13,2013-10-03 19:40:00,
2013-10-03 14:50:00,72.1,65.9,29.74,SSE,151,1.0,1.0,81,0.00,,,0.00,Wunderground v.1.13,2013-10-03 19:50:00,
2013-10-03 15:00:00,72.7,66.5,29.74,SSE,151,0.0,10.0,81,0.00,,,0.00,Wunderground v.1.13,2013-10-03 20:00:00,
2013-10-03 15:05:00,73.0,66.8,29.74,SE,129,0.0,7.0,81,0.00,,,0.00,Wunderground v.1.13,2013-10-03 20:05:00,
2013-10-03 15:10:00,73.5,66.2,29.74,SE,130,0.0,7.0,78,0.00,,,0.00,Wunderground v.1.13,2013-10-03 20:10:00,
2013-10-03 15:20:00,73.9,65.1,29.75,South,187,2.0,2.0,74,0.00,,,0.00,Wunderground v.1.13,2013-10-03 20:20:00,
2013-10-03 15:25:00,73.9,65.1,29.75,SSW,192,3.0,7.0,74,0.00,,,0.00,Wunderground v.1.13,2013-10-03 20:25:00,
2013-10-03 15:30:00,73.7,64.9,29.75,SSE,161,3.0,3.0,74,0.00,,,0.00,Wunderground v.1.13,2013-10-03 20:30:00,
2013-10-03 15:40:00,73.9,64.7,29.75,South,184,3.0,3.0,73,0.00,,,0.00,Wunderground v.1.13,2013-10-03 20:40:00,
2013-10-03 15:50:00,73.3,64.9,29.75,South,182,3.0,7.0,75,0.00,,,0.00,Wunderground v.1.13,2013-10-03 20:50:00,
2013-10-03 15:55:00,73.0,64.6,29.75,SSW,211,4.0,4.0,75,0.00,,,0.00,Wunderground v.1.13,2013-10-03 20:55:00,
2013-10-03 16:00:00,72.7,64.7,29.74,South,176,4.0,4.0,76,0.00,,,0.00,Wunderground v.1.13,2013-10-03 21:00:00,
2013-10-03 16:05:00,72.5,64.9,29.74,South,189,2.0,2.0,77,0.00,,,0.00,Wunderground v.1.13,2013-10-03 21:05:00,
2013-10-03 16:15:00,72.1,64.9,29.75,SSE,150,2.0,11.0,78,0.00,,,0.00,Wunderground v.1.13,2013-10-03 21:15:00,
2013-10-03 16:25:00,72.0,65.1,29.75,South,174,1.0,1.0,79,0.00,,,0.00,Wunderground v.1.13,2013-10-03 21:25:00,
2013-10-03 16:30:00,71.8,64.9,29.74,South,190,1.0,1.0,79,0.00,,,0.00,Wunderground v.1.13,2013-10-03 21:30:00,
2013-10-03 16:40:00,71.6,65.1,29.74,South,186,1.0,1.0,80,0.00,,,0.00,Wunderground v.1.13,2013-10-03 21:40:00,
2013-10-03 16:50:00,71.6,65.1,29.74,South,177,0.0,14.0,80,0.00,,,0.00,Wunderground v.1.13,2013-10-03 21:50:00,
2013-10-03 16:55:00,71.6,65.5,29.74,SSE,168,0.0,14.0,81,0.00,,,0.00,Wunderground v.1.13,2013-10-03 21:55:00,
2013-10-03 17:05:00,71.5,65.7,29.75,South,177,1.0,1.0,82,0.00,,,0.00,Wunderground v.1.13,2013-10-03 22:05:00,
2013-10-03 17:15:00,71.5,65.7,29.74,South,176,0.0,9.0,82,0.00,,,0.00,Wunderground v.1.13,2013-10-03 22:15:00,
2013-10-03 17:20:00,71.5,65.7,29.74,South,176,0.0,9.0,82,0.00,,,0.00,Wunderground v.1.13,2013-10-03 22:20:00,
2013-10-03 17:25:00,71.5,65.7,29.74,South,176,0.0,9.0,82,0.00,,,0.00,Wunderground v.1.13,2013-10-03 22:25:00,
2013-10-03 17:35:00,71.5,65.7,29.73,South,176,0.0,7.0,82,0.00,,,0.00,Wunderground v.1.13,2013-10-03 22:35:00,
2013-10-03 17:40:00,71.3,65.9,29.73,South,176,0.0,7.0,83,0.00,,,0.00,Wunderground v.1.13,2013-10-03 22:40:00,
2013-10-03 17:45:00,71.1,65.7,29.74,South,176,0.0,7.0,83,0.00,,,0.00,Wunderground v.1.13,2013-10-03 22:45:00,
2013-10-03 17:55:00,70.9,65.5,29.74,South,176,0.0,7.0,83,0.00,,,0.00,Wunderground v.1.13,2013-10-03 22:55:00,
2013-10-03 18:00:00,70.8,65.7,29.74,South,176,0.0,7.0,84,0.00,,,0.00,Wunderground v.1.13,2013-10-03 23:00:00,
2013-10-03 18:05:00,70.6,65.5,29.74,South,176,0.0,0.0,84,0.00,,,0.00,Wunderground v.1.13,2013-10-03 23:05:00,
2013-10-03 18:15:00,70.3,65.6,29.75,South,176,0.0,0.0,85,0.00,,,0.00,Wunderground v.1.13,2013-10-03 23:15:00,
2013-10-03 18:25:00,69.9,65.5,29.75,South,176,0.0,0.0,86,0.00,,,0.00,Wunderground v.1.13,2013-10-03 23:25:00,
2013-10-03 18:30:00,69.8,65.4,29.74,South,176,0.0,0.0,86,0.00,,,0.00,Wunderground v.1.13,2013-10-03 23:30:00,
2013-10-03 18:40:00,69.8,65.8,29.74,South,176,0.0,0.0,87,0.00,,,0.00,Wunderground v.1.13,2013-10-03 23:40:00,
2013-10-03 18:50:00,69.4,65.4,29.74,South,176,0.0,0.0,87,0.00,,,0.00,Wunderground v.1.13,2013-10-03 23:50:00,
2013-10-03 19:00:00,69.1,65.1,29.75,South,176,0.0,0.0,87,0.00,,,0.00,Wunderground v.1.13,2013-10-04 00:00:00,
2013-10-03 19:05:00,68.9,65.2,29.75,South,176,0.0,0.0,88,0.00,,,0.00,Wunderground v.1.13,2013-10-04 00:05:00,
2013-10-03 19:15:00,68.9,65.2,29.76,South,176,0.0,0.0,88,0.00,,,0.00,Wunderground v.1.13,2013-10-04 00:15:00,
2013-10-03 19:20:00,68.9,65.5,29.76,South,176,0.0,0.0,89,0.00,,,0.00,Wunderground v.1.13,2013-10-04 00:20:00,
2013-10-03 19:25:00,68.9,65.5,29.76,South,176,0.0,0.0,89,0.00,,,0.00,Wunderground v.1.13,2013-10-04 00:25:00,
2013-10-03 19:35:00,68.9,65.5,29.76,South,176,0.0,0.0,89,0.00,,,0.00,Wunderground v.1.13,2013-10-04 00:35:00,
2013-10-03 19:40:00,68.8,65.4,29.76,South,176,0.0,0.0,89,0.00,,,0.00,Wunderground v.1.13,2013-10-04 00:40:00,
2013-10-03 19:45:00,68.8,65.4,29.76,South,176,0.0,0.0,89,0.00,,,0.00,Wunderground v.1.13,2013-10-04 00:45:00,
2013-10-03 19:55:00,68.8,65.7,29.76,South,176,0.0,0.0,90,0.00,,,0.00,Wunderground v.1.13,2013-10-04 00:55:00,
2013-10-03 20:00:00,68.8,65.7,29.75,South,176,0.0,0.0,90,0.00,,,0.00,Wunderground v.1.13,2013-10-04 01:00:00,
2013-10-03 20:05:00,68.9,65.8,29.75,South,176,0.0,0.0,90,0.00,,,0.00,Wunderground v.1.13,2013-10-04 01:05:00,
2013-10-03 20:15:00,69.1,65.7,29.74,SE,143,0.0,0.0,89,0.00,,,0.00,Wunderground v.1.13,2013-10-04 01:15:00,
2013-10-03 20:20:00,69.1,65.7,29.74,SE,143,0.0,0.0,89,0.00,,,0.00,Wunderground v.1.13,2013-10-04 01:20:00,
2013-10-03 20:30:00,69.3,65.9,29.75,SE,138,0.0,0.0,89,0.00,,,0.00,Wunderground v.1.13,2013-10-04 01:30:00,
2013-10-03 20:40:00,69.3,65.9,29.75,SE,138,0.0,5.0,89,0.00,,,0.00,Wunderground v.1.13,2013-10-04 01:40:00,
2013-10-03 20:50:00,69.3,65.9,29.75,SE,138,0.0,5.0,89,0.00,,,0.00,Wunderground v.1.13,2013-10-04 01:50:00,
2013-10-03 20:55:00,69.3,65.9,29.75,SE,138,0.0,5.0,89,0.00,,,0.00,Wunderground v.1.13,2013-10-04 01:55:00,
2013-10-03 21:05:00,69.3,65.9,29.74,SE,138,0.0,5.0,89,0.00,,,0.00,Wunderground v.1.13,2013-10-04 02:05:00,
2013-10-03 21:15:00,69.1,65.7,29.75,SE,138,0.0,5.0,89,0.00,,,0.00,Wunderground v.1.13,2013-10-04 02:15:00,
2013-10-03 21:20:00,68.9,65.8,29.75,SE,138,0.0,5.0,90,0.00,,,0.00,Wunderground v.1.13,2013-10-04 02:20:00,
2013-10-03 21:25:00,68.9,65.8,29.75,SE,138,0.0,5.0,90,0.00,,,0.00,Wunderground v.1.13,2013-10-04 02:25:00,
2013-10-03 21:35:00,68.3,64.6,29.76,North,5,2.0,4.0,88,0.00,,,0.00,Wunderground v.1.13,2013-10-04 02:35:00,
2013-10-03 21:40:00,67.6,63.6,29.76,NNE,26,3.0,3.0,87,0.00,,,0.00,Wunderground v.1.13,2013-10-04 02:40:00,
2013-10-03 21:45:00,67.4,62.7,29.79,NW,325,1.0,1.0,85,0.00,,,0.00,Wunderground v.1.13,2013-10-04 02:45:00,
2013-10-03 21:55:00,66.8,61.5,29.79,NNW,330,1.0,1.0,83,0.00,,,0.00,Wunderground v.1.13,2013-10-04 02:55:00,
2013-10-03 22:00:00,66.3,61.0,29.79,NNE,28,0.0,6.0,83,0.00,,,0.00,Wunderground v.1.13,2013-10-04 03:00:00,
2013-10-03 22:05:00,66.0,61.4,29.79,NE,42,2.0,2.0,85,0.00,,,0.00,Wunderground v.1.13,2013-10-04 03:05:00,
2013-10-03 22:15:00,65.6,61.0,29.79,NE,37,1.0,13.0,85,0.00,,,0.00,Wunderground v.1.13,2013-10-04 03:15:00,
2013-10-03 22:20:00,65.6,61.3,29.79,North,5,1.0,1.0,86,0.00,,,0.00,Wunderground v.1.13,2013-10-04 03:20:00,
2013-10-03 22:35:00,65.0,62.0,29.79,NNE,29,0.0,11.0,90,0.06,,,0.04,Wunderground v.1.13,2013-10-04 03:35:00,
2013-10-03 22:45:00,64.5,61.8,29.79,NNE,29,0.0,11.0,91,0.00,,,0.04,Wunderground v.1.13,2013-10-04 03:45:00,
2013-10-03 22:55:00,64.2,61.8,29.79,NNE,29,0.0,11.0,92,0.00,,,0.04,Wunderground v.1.13,2013-10-04 03:55:00,
2013-10-03 23:00:00,64.2,62.1,29.79,NNE,29,0.0,11.0,93,0.00,,,0.04,Wunderground v.1.13,2013-10-04 04:00:00,
2013-10-03 23:35:00,63.9,62.1,29.79,NNE,29,0.0,0.0,94,0.00,,,0.04,Wunderground v.1.13,2013-10-04 04:35:00,
2013-10-03 23:45:00,63.7,62.2,29.79,NNE,29,0.0,0.0,95,0.00,,,0.04,Wunderground v.1.13,2013-10-04 04:45:00,
2013-10-03 23:55:00,63.7,62.2,29.79,NNE,29,0.0,0.0,95,0.00,,,0.04,Wunderground v.1.13,2013-10-04 04:55:00,